Olin, Iowa
Current Conditions -  °F | °C
As of 12:35 PM on Friday 24 Oct 2014 (Local Time) from KMXO Reporting Station
Broken Clouds Broken Clouds  
Wind Chill: 57°   Ceiling: 700
Heat Index: 57°   Visibility: 9mi
Dew Point: 57°   Wind: 14mph
Humidity: 100%   Direction: 160°SSE
Pressure: 29.99"   Gusts: NA
Location:  42°N, 91.14°W
Report Text: KMXO 241735Z AUTO 16012KT 9SM BKN007 14/14 A2999 RMK AO2
Loading
Personal Weather Stations






























Interactive Weather Map
Tropical Storm Tracking
New forecast layout! Learn more

10-Day Weather Forecast

Advertisements
Track Severe Weather on mobile